createdAt,value
2024-03-03T00:00:35.391Z,66949.09
2024-03-03T00:01:32.037Z,66949.09
2024-03-03T00:02:28.721Z,66946.88
2024-03-03T00:03:25.417Z,66941.19
2024-03-03T00:04:22.159Z,66942.84
2024-03-03T00:05:19.290Z,66952.28
2024-03-03T00:06:15.975Z,66935.41
2024-03-03T00:07:12.725Z,66938.97
2024-03-03T00:08:10.073Z,66934.13
2024-03-03T00:09:06.918Z,66925.69
2024-03-03T00:10:04.524Z,66915.72
2024-03-03T00:11:01.252Z,66916.13
2024-03-03T00:11:58.020Z,66917.78
2024-03-03T00:12:54.646Z,66910.72
2024-03-03T00:13:51.271Z,66917.78
2024-03-03T00:14:47.857Z,66916.81
2024-03-03T00:15:44.495Z,66921.81
2024-03-03T00:16:45.005Z,66921.25
2024-03-03T00:17:41.636Z,66922.91
2024-03-03T00:18:40.050Z,66921.09
2024-03-03T00:19:36.767Z,66915.97
2024-03-03T00:20:33.789Z,66935.50
2024-03-03T00:21:31.394Z,66933.03
2024-03-03T00:22:28.054Z,66929.56
2024-03-03T00:23:25.394Z,66929.00
2024-03-03T00:24:22.185Z,66933.72
2024-03-03T00:25:19.060Z,66929.16
2024-03-03T00:26:15.787Z,66926.25
2024-03-03T00:27:13.697Z,66916.69
2024-03-03T00:28:10.341Z,66902.44
2024-03-03T00:29:07.077Z,66893.56
2024-03-03T00:30:04.153Z,66889.69
2024-03-03T00:31:00.827Z,66887.47
2024-03-03T00:31:57.566Z,66882.31
2024-03-03T00:32:54.208Z,66904.34
2024-03-03T00:33:50.895Z,66898.97
2024-03-03T00:34:47.530Z,66901.16
2024-03-03T00:35:44.142Z,66891.88
2024-03-03T00:36:40.788Z,66897.84
2024-03-03T00:37:37.513Z,66874.59
2024-03-03T00:38:35.794Z,66894.09
2024-03-03T00:39:33.718Z,66894.50
2024-03-03T00:40:33.983Z,66892.72
2024-03-03T00:41:30.862Z,66890.38
2024-03-03T00:42:27.538Z,66885.94
2024-03-03T00:43:24.117Z,66886.78
2024-03-03T00:44:20.711Z,66915.41
2024-03-03T00:45:17.394Z,66905.59
2024-03-03T00:46:14.218Z,66899.09
2024-03-03T00:47:10.903Z,66901.16
2024-03-03T00:48:07.835Z,66872.53
2024-03-03T00:49:04.536Z,66871.41
2024-03-03T00:50:01.225Z,66850.38
2024-03-03T00:50:58.201Z,66847.34
2024-03-03T00:51:54.912Z,66853.69
2024-03-03T00:52:55.673Z,66858.53
2024-03-03T00:53:52.522Z,66882.88
2024-03-03T00:54:49.350Z,66863.50
2024-03-03T00:55:49.397Z,66863.50
2024-03-03T00:56:46.071Z,66847.59
2024-03-03T00:57:42.675Z,66844.13
2024-03-03T00:58:39.405Z,66844.69
2024-03-03T00:59:36.040Z,66838.06
2024-03-03T01:00:32.729Z,66833.22
2024-03-03T01:01:29.422Z,66834.72
2024-03-03T01:02:26.224Z,66840.97
2024-03-03T01:03:22.899Z,66853.00
2024-03-03T01:04:19.653Z,66850.91
2024-03-03T01:05:17.013Z,66848.56
2024-03-03T01:06:13.726Z,66855.34
2024-03-03T01:07:10.528Z,66862.41
2024-03-03T01:08:07.388Z,66851.47
2024-03-03T01:09:04.257Z,66847.31
2024-03-03T01:10:00.952Z,66857.00
2024-03-03T01:10:57.622Z,66874.59
2024-03-03T01:11:55.404Z,66855.75
2024-03-03T01:12:52.466Z,66851.31
2024-03-03T01:13:49.093Z,66840.25
2024-03-03T01:14:45.741Z,66840.97
2024-03-03T01:15:42.402Z,66853.00
2024-03-03T01:16:39.101Z,66855.34
2024-03-03T01:17:35.754Z,66840.97
2024-03-03T01:18:32.669Z,66837.06
2024-03-03T01:19:30.118Z,66823.66
2024-03-03T01:20:26.946Z,66836.00
2024-03-03T01:21:23.673Z,66842.47
2024-03-03T01:22:20.508Z,66840.69
2024-03-03T01:23:17.338Z,66824.34
2024-03-03T01:24:14.078Z,66838.44
2024-03-03T01:25:10.866Z,66833.59
2024-03-03T01:26:07.530Z,66836.53
2024-03-03T01:27:04.400Z,66827.28
2024-03-03T01:28:01.109Z,66829.91
2024-03-03T01:28:57.827Z,66830.28
2024-03-03T01:29:54.406Z,66801.28
2024-03-03T01:30:51.030Z,66801.09
2024-03-03T01:31:47.763Z,66784.91
2024-03-03T01:32:44.503Z,66794.31
2024-03-03T01:33:41.241Z,66795.56
2024-03-03T01:34:37.957Z,66794.47
2024-03-03T01:35:34.668Z,66799.31
2024-03-03T01:36:31.264Z,66793.91
2024-03-03T01:37:27.877Z,66797.25
2024-03-03T01:38:24.468Z,66794.47
2024-03-03T01:39:21.657Z,66792.66
2024-03-03T01:40:18.526Z,66788.94
2024-03-03T01:41:15.276Z,66788.78
2024-03-03T01:42:11.941Z,66784.34
2024-03-03T01:43:08.819Z,66784.50
2024-03-03T01:44:05.521Z,66802.06
2024-03-03T01:45:03.536Z,66803.16
2024-03-03T01:46:00.248Z,66803.88
2024-03-03T01:46:57.835Z,66803.03
2024-03-03T01:47:57.794Z,66803.59
2024-03-03T01:48:55.193Z,66792.81
2024-03-03T01:49:53.325Z,66795.56
2024-03-03T01:50:51.135Z,66781.19
2024-03-03T01:51:49.374Z,66789.88
2024-03-03T01:52:48.424Z,66786.03
2024-03-03T01:53:52.198Z,66787.41
2024-03-03T01:54:48.936Z,66794.31
2024-03-03T01:55:46.995Z,66784.50
2024-03-03T01:56:45.422Z,66797.50
2024-03-03T01:57:42.868Z,66791.72
2024-03-03T01:58:41.022Z,66796.69
2024-03-03T01:59:38.326Z,66793.78
2024-03-03T02:00:35.976Z,66787.81
2024-03-03T02:01:33.374Z,66789.50
2024-03-03T02:02:30.118Z,66767.22
2024-03-03T02:03:27.154Z,66789.75
2024-03-03T02:04:24.747Z,66797.25
2024-03-03T02:05:22.473Z,66809.69
2024-03-03T02:06:22.294Z,66819.38
2024-03-03T02:07:21.230Z,66827.38
2024-03-03T02:08:18.842Z,66826.00
2024-03-03T02:09:15.743Z,66824.22
2024-03-03T02:10:13.281Z,66806.09
2024-03-03T02:11:10.561Z,66782.28
2024-03-03T02:12:07.519Z,66786.56
2024-03-03T02:13:04.384Z,66785.63
2024-03-03T02:14:01.479Z,66790.44
2024-03-03T02:14:58.132Z,66775.66
2024-03-03T02:15:55.117Z,66784.34
2024-03-03T02:16:52.167Z,66795.97
2024-03-03T02:17:51.061Z,66818.81
2024-03-03T02:18:47.793Z,66800.41
2024-03-03T02:19:44.480Z,66776.75
2024-03-03T02:20:42.528Z,66800.00
2024-03-03T02:21:39.313Z,66811.31
2024-03-03T02:22:38.763Z,66784.09
2024-03-03T02:23:35.443Z,66801.66
2024-03-03T02:24:32.117Z,66811.06
2024-03-03T02:25:28.974Z,66811.06
2024-03-03T02:26:28.020Z,66815.50
2024-03-03T02:27:25.425Z,66812.72
2024-03-03T02:28:22.377Z,66830.16
2024-03-03T02:29:22.477Z,66819.38
2024-03-03T02:30:19.408Z,66824.34
2024-03-03T02:31:16.112Z,66831.41
2024-03-03T02:32:12.799Z,66839.28
2024-03-03T02:33:09.570Z,66846.50
2024-03-03T02:34:06.394Z,66870.31
2024-03-03T02:35:03.172Z,66869.19
2024-03-03T02:35:59.855Z,66868.63
2024-03-03T02:36:56.573Z,66856.31
2024-03-03T02:37:53.227Z,66843.72
2024-03-03T02:38:51.441Z,66857.00
2024-03-03T02:39:48.140Z,66853.00
2024-03-03T02:40:44.745Z,66850.38
2024-03-03T02:41:41.437Z,66855.34
2024-03-03T02:42:38.168Z,66857.00
2024-03-03T02:43:35.493Z,66867.38
2024-03-03T02:44:32.253Z,66869.34
2024-03-03T02:45:28.905Z,66869.75
2024-03-03T02:46:25.612Z,66868.06
2024-03-03T02:47:22.237Z,66866.44
2024-03-03T02:48:22.032Z,66863.50
2024-03-03T02:49:18.735Z,66863.09
2024-03-03T02:50:15.449Z,66859.22
2024-03-03T02:51:12.097Z,66869.75
2024-03-03T02:52:09.127Z,66877.50
2024-03-03T02:53:05.825Z,66886.22
2024-03-03T02:54:02.415Z,66875.16
2024-03-03T02:54:59.066Z,66874.59
2024-03-03T02:55:55.759Z,66869.19
2024-03-03T02:56:53.029Z,66862.53
2024-03-03T02:57:49.734Z,66874.16
2024-03-03T02:58:46.649Z,66875.28
2024-03-03T02:59:43.281Z,66882.88
2024-03-03T03:00:40.106Z,66878.06
2024-03-03T03:01:36.853Z,66877.91
2024-03-03T03:02:33.547Z,66867.53
2024-03-03T03:03:32.162Z,66866.44
2024-03-03T03:04:29.772Z,66869.06
2024-03-03T03:05:26.406Z,66860.88
2024-03-03T03:06:23.011Z,66871.97
2024-03-03T03:07:19.992Z,66885.66
2024-03-03T03:08:16.798Z,66881.38
2024-03-03T03:09:13.388Z,66898.53
2024-03-03T03:10:10.188Z,66900.75
2024-03-03T03:11:07.466Z,66886.78
2024-03-03T03:12:04.650Z,66874.72
2024-03-03T03:13:01.680Z,66867.53
2024-03-03T03:13:58.302Z,66876.41
2024-03-03T03:14:54.944Z,66867.53
2024-03-03T03:15:54.523Z,66864.22
2024-03-03T03:16:51.435Z,66854.38
2024-03-03T03:17:48.114Z,66852.16
2024-03-03T03:18:44.754Z,66859.63
2024-03-03T03:19:45.562Z,66849.81
2024-03-03T03:20:42.279Z,66861.84
2024-03-03T03:21:38.970Z,66862.00
2024-03-03T03:22:35.650Z,66860.88
2024-03-03T03:23:32.295Z,66865.72
2024-03-03T03:24:30.552Z,66867.94
2024-03-03T03:25:27.329Z,66857.00
2024-03-03T03:26:24.111Z,66847.44
2024-03-03T03:27:20.863Z,66845.94
2024-03-03T03:28:17.657Z,66861.44
2024-03-03T03:29:14.548Z,66871.81
2024-03-03T03:30:11.656Z,66862.41
2024-03-03T03:31:08.360Z,66848.84
2024-03-03T03:32:05.582Z,66842.31
2024-03-03T03:33:02.249Z,66857.41
2024-03-03T03:33:58.898Z,66861.44
2024-03-03T03:34:56.026Z,66871.81
2024-03-03T03:35:52.703Z,66870.84
2024-03-03T03:36:49.526Z,66885.25
2024-03-03T03:37:46.351Z,66876.09
2024-03-03T03:38:43.020Z,66886.34
2024-03-03T03:39:41.026Z,66881.94
2024-03-03T03:40:37.874Z,66871.69
2024-03-03T03:41:34.458Z,66863.09
2024-03-03T03:42:31.128Z,66828.63
2024-03-03T03:43:27.720Z,66830.69
2024-03-03T03:44:24.402Z,66845.09
2024-03-03T03:45:21.122Z,66854.66
2024-03-03T03:46:17.789Z,66865.31
2024-03-03T03:47:14.481Z,66856.44
2024-03-03T03:48:11.121Z,66847.59
2024-03-03T03:49:10.717Z,66841.66
2024-03-03T03:50:08.417Z,66834.31
2024-03-03T03:51:05.342Z,66836.53
2024-03-03T03:52:05.323Z,66841.53
2024-03-03T03:53:02.132Z,66831.97
2024-03-03T03:53:59.345Z,66833.59
2024-03-03T03:54:56.011Z,66822.00
2024-03-03T03:55:52.698Z,66817.69
2024-03-03T03:56:49.405Z,66824.34
2024-03-03T03:57:46.066Z,66813.53
2024-03-03T03:58:42.682Z,66802.63
2024-03-03T03:59:39.351Z,66797.63
2024-03-03T04:00:36.025Z,66781.72
2024-03-03T04:01:32.808Z,66780.09
2024-03-03T04:02:29.516Z,66776.19
2024-03-03T04:03:26.124Z,66771.63
2024-03-03T04:04:23.321Z,66759.88
2024-03-03T04:05:20.182Z,66759.06
2024-03-03T04:06:16.757Z,66753.94
2024-03-03T04:07:13.469Z,66742.47
2024-03-03T04:08:10.120Z,66741.38
2024-03-03T04:09:06.899Z,66746.19
2024-03-03T04:10:03.678Z,66749.13
2024-03-03T04:11:00.493Z,66745.78
2024-03-03T04:11:58.044Z,66754.47
2024-03-03T04:12:57.269Z,66749.91
2024-03-03T04:13:54.122Z,66751.72
2024-03-03T04:14:50.764Z,66762.78
2024-03-03T04:15:47.596Z,66755.59
2024-03-03T04:16:45.259Z,66758.38
2024-03-03T04:17:42.683Z,66753.38
2024-03-03T04:18:39.470Z,66752.97
2024-03-03T04:19:36.167Z,66756.53
2024-03-03T04:20:32.955Z,66753.78
2024-03-03T04:21:29.615Z,66750.47
2024-03-03T04:22:26.363Z,66743.97
2024-03-03T04:23:23.005Z,66732.50
2024-03-03T04:24:19.643Z,66705.69
2024-03-03T04:25:16.562Z,66717.72
2024-03-03T04:26:13.758Z,66719.09
2024-03-03T04:27:10.422Z,66724.06
2024-03-03T04:28:07.413Z,66722.81
2024-03-03T04:29:04.133Z,66720.34
2024-03-03T04:30:00.791Z,66710.38
2024-03-03T04:30:57.411Z,66722.97
2024-03-03T04:31:54.798Z,66724.22
2024-03-03T04:32:51.427Z,66730.16
2024-03-03T04:33:49.204Z,66730.69
2024-03-03T04:34:45.904Z,66732.38
2024-03-03T04:35:43.882Z,66740.66
2024-03-03T04:36:47.113Z,66729.59
2024-03-03T04:37:43.811Z,66732.22
2024-03-03T04:38:43.557Z,66724.22
2024-03-03T04:39:40.335Z,66724.78
2024-03-03T04:40:36.948Z,66720.34
2024-03-03T04:41:33.629Z,66720.88
2024-03-03T04:42:30.226Z,66723.50
2024-03-03T04:43:26.943Z,66731.81
2024-03-03T04:44:23.796Z,66722.56
2024-03-03T04:45:20.533Z,66746.59
2024-03-03T04:46:17.196Z,66739.56
2024-03-03T04:47:13.932Z,66726.97
2024-03-03T04:48:11.077Z,66748.81
2024-03-03T04:49:07.741Z,66749.50
2024-03-03T04:50:04.834Z,66743.59
2024-03-03T04:51:01.767Z,66746.72
2024-03-03T04:51:58.401Z,66748.41
2024-03-03T04:52:55.016Z,66753.38
2024-03-03T04:53:51.604Z,66749.91
2024-03-03T04:54:48.269Z,66749.50
2024-03-03T04:55:45.082Z,66761.69
2024-03-03T04:56:42.144Z,66750.19
2024-03-03T04:57:39.193Z,66744.53
2024-03-03T04:58:35.903Z,66753.94
2024-03-03T04:59:32.677Z,66754.34
2024-03-03T05:00:29.389Z,66754.63
2024-03-03T05:01:26.209Z,66757.81
2024-03-03T05:02:22.970Z,66752.41
2024-03-03T05:03:19.614Z,66752.41
2024-03-03T05:04:16.315Z,66751.31
2024-03-03T05:05:13.067Z,66773.28
2024-03-03T05:06:09.719Z,66772.06
2024-03-03T05:07:06.426Z,66782.16
2024-03-03T05:08:04.122Z,66812.03
2024-03-03T05:09:00.858Z,66822.53
2024-03-03T05:09:57.490Z,66806.63
2024-03-03T05:10:54.214Z,66803.72
2024-03-03T05:11:50.993Z,66797.25
2024-03-03T05:12:47.912Z,66815.91
2024-03-03T05:13:44.554Z,66822.53
2024-03-03T05:14:41.231Z,66786.72
2024-03-03T05:15:37.891Z,66799.31
2024-03-03T05:16:34.672Z,66804.84
2024-03-03T05:17:31.267Z,66814.78
2024-03-03T05:18:27.889Z,66826.00
2024-03-03T05:19:24.689Z,66797.09
2024-03-03T05:20:21.352Z,66823.25
2024-03-03T05:21:18.007Z,66831.53
2024-03-03T05:22:14.746Z,66835.28
2024-03-03T05:23:11.478Z,66848.16
2024-03-03T05:24:08.169Z,66849.81
2024-03-03T05:25:09.935Z,66864.63
2024-03-03T05:26:06.533Z,66848.84
2024-03-03T05:27:04.358Z,66853.69
2024-03-03T05:28:01.034Z,66853.94
2024-03-03T05:28:58.929Z,66831.97
2024-03-03T05:29:55.580Z,66850.38
2024-03-03T05:30:53.323Z,66830.28
2024-03-03T05:31:50.320Z,66835.28
2024-03-03T05:32:47.065Z,66845.38
2024-03-03T05:33:43.806Z,66863.66
2024-03-03T05:34:40.535Z,66867.53
2024-03-03T05:35:40.095Z,66870.16
2024-03-03T05:36:37.436Z,66878.47
2024-03-03T05:37:34.073Z,66876.41
2024-03-03T05:38:31.166Z,66871.97
2024-03-03T05:39:28.424Z,66867.94
2024-03-03T05:40:25.158Z,66847.44
2024-03-03T05:41:26.915Z,66817.69
2024-03-03T05:42:23.887Z,66820.31
2024-03-03T05:43:20.657Z,66818.81
2024-03-03T05:44:17.536Z,66849.81
2024-03-03T05:45:14.195Z,66825.88
2024-03-03T05:46:10.857Z,66844.56
2024-03-03T05:47:07.581Z,66855.22
2024-03-03T05:48:04.617Z,66876.25
2024-03-03T05:49:01.780Z,66894.66
2024-03-03T05:49:58.393Z,66890.78
2024-03-03T05:50:55.070Z,66886.34
2024-03-03T05:51:51.705Z,66906.28
2024-03-03T05:52:48.345Z,66863.09
2024-03-03T05:53:45.157Z,66838.75
2024-03-03T05:54:41.874Z,66859.78
2024-03-03T05:55:38.512Z,66854.09
2024-03-03T05:56:38.707Z,66867.53
2024-03-03T05:57:35.760Z,66887.47
2024-03-03T05:58:32.386Z,66896.72
2024-03-03T05:59:28.976Z,66902.28
2024-03-03T06:00:25.639Z,66900.19
2024-03-03T06:01:22.447Z,66904.63
2024-03-03T06:02:19.194Z,66940.66
2024-03-03T06:03:15.895Z,66926.25
2024-03-03T06:04:12.780Z,66918.34
2024-03-03T06:05:09.643Z,66928.47
2024-03-03T06:06:08.075Z,66924.56
2024-03-03T06:07:05.704Z,66926.25
2024-03-03T06:08:04.625Z,66934.97
2024-03-03T06:09:01.322Z,66929.00
2024-03-03T06:09:58.007Z,66937.31
2024-03-03T06:10:55.226Z,66941.19
2024-03-03T06:11:51.952Z,66922.38
2024-03-03T06:12:48.629Z,66919.75
2024-03-03T06:13:45.635Z,66929.56
2024-03-03T06:14:42.938Z,66941.59
2024-03-03T06:15:39.903Z,66923.47
2024-03-03T06:16:38.737Z,66923.06
2024-03-03T06:17:35.428Z,66920.97
2024-03-03T06:18:32.122Z,66893.00
2024-03-03T06:19:28.792Z,66900.19
2024-03-03T06:20:25.439Z,66924.56
2024-03-03T06:21:22.815Z,66933.44
2024-03-03T06:22:19.789Z,66914.47
2024-03-03T06:23:17.009Z,66914.34
2024-03-03T06:24:13.699Z,66935.66
2024-03-03T06:25:11.168Z,66943.00
2024-03-03T06:26:07.938Z,66948.94
2024-03-03T06:27:05.091Z,66951.56
2024-03-03T06:28:01.780Z,66932.47
2024-03-03T06:28:58.561Z,66939.94
2024-03-03T06:29:55.251Z,66906.84
2024-03-03T06:30:51.891Z,66916.28
2024-03-03T06:31:48.534Z,66936.19
2024-03-03T06:32:45.421Z,66908.53
2024-03-03T06:33:42.214Z,66915.56
2024-03-03T06:34:39.306Z,66910.59
2024-03-03T06:35:35.950Z,66898.53
2024-03-03T06:36:32.952Z,66888.56
2024-03-03T06:37:32.196Z,66878.63
2024-03-03T06:38:29.027Z,66903.94
2024-03-03T06:39:25.687Z,66939.94
2024-03-03T06:40:22.548Z,66920.56
2024-03-03T06:41:19.229Z,66932.88
2024-03-03T06:42:15.817Z,66922.91
2024-03-03T06:43:12.482Z,66949.50
2024-03-03T06:44:09.214Z,66950.06
2024-03-03T06:45:06.868Z,66946.19
2024-03-03T06:46:04.304Z,66926.78
2024-03-03T06:47:00.921Z,66939.25
2024-03-03T06:47:57.522Z,66921.66
2024-03-03T06:48:54.202Z,66935.50
2024-03-03T06:49:51.225Z,66943.81
2024-03-03T06:50:47.865Z,66942.16
2024-03-03T06:51:44.590Z,66930.09
2024-03-03T06:52:41.296Z,66923.88
2024-03-03T06:53:41.238Z,66908.53
2024-03-03T06:54:37.875Z,66890.50
2024-03-03T06:55:34.551Z,66897.69
2024-03-03T06:56:31.175Z,66914.47
2024-03-03T06:57:28.191Z,66904.06
2024-03-03T06:58:24.872Z,66893.00
2024-03-03T06:59:21.808Z,66914.47
2024-03-03T07:00:19.503Z,66927.91
2024-03-03T07:01:16.255Z,66945.75
2024-03-03T07:02:12.987Z,66961.13
2024-03-03T07:03:09.606Z,66942.16
2024-03-03T07:04:29.158Z,66937.31
2024-03-03T07:05:25.972Z,66908.53
2024-03-03T07:06:22.585Z,66928.47
2024-03-03T07:07:19.221Z,66960.44
2024-03-03T07:08:15.997Z,66961.13
2024-03-03T07:09:12.621Z,66983.16
2024-03-03T07:10:11.033Z,66981.78
2024-03-03T07:11:08.014Z,66972.78
2024-03-03T07:12:05.080Z,66992.72
2024-03-03T07:13:02.291Z,66989.00
2024-03-03T07:13:58.972Z,67011.56
2024-03-03T07:14:55.664Z,66977.22
2024-03-03T07:15:52.287Z,66985.53
2024-03-03T07:16:49.376Z,67008.81
2024-03-03T07:17:46.126Z,66973.75
2024-03-03T07:18:42.731Z,66987.75
2024-03-03T07:19:39.338Z,66956.72
2024-03-03T07:20:35.920Z,66950.06
2024-03-03T07:21:32.808Z,66983.16
2024-03-03T07:22:34.444Z,66996.59
2024-03-03T07:23:31.043Z,66989.97
2024-03-03T07:24:28.259Z,66978.31
2024-03-03T07:25:27.188Z,66986.06
2024-03-03T07:26:23.948Z,67000.50
2024-03-03T07:27:20.519Z,67020.47
2024-03-03T07:28:17.112Z,67027.09
2024-03-03T07:29:13.741Z,67024.47
2024-03-03T07:30:10.892Z,67028.19
2024-03-03T07:31:07.556Z,67039.84
2024-03-03T07:32:04.475Z,67038.75
2024-03-03T07:33:01.144Z,67037.78
2024-03-03T07:33:58.497Z,67051.50
2024-03-03T07:34:58.050Z,67042.06
2024-03-03T07:35:54.696Z,67027.50
2024-03-03T07:36:52.294Z,67043.75
2024-03-03T07:37:49.037Z,67030.03
2024-03-03T07:38:45.708Z,67054.66
2024-03-03T07:39:43.600Z,67038.19
2024-03-03T07:40:40.215Z,67062.59
2024-03-03T07:41:37.694Z,67042.06
2024-03-03T07:42:34.454Z,67055.94
2024-03-03T07:43:31.621Z,67031.13
2024-03-03T07:44:28.311Z,67032.78
2024-03-03T07:45:24.946Z,67066.63
2024-03-03T07:46:21.708Z,67069.38
2024-03-03T07:47:18.452Z,67057.19
2024-03-03T07:48:15.043Z,67064.94
2024-03-03T07:49:12.151Z,67090.91
2024-03-03T07:50:09.385Z,67056.50
2024-03-03T07:51:07.680Z,67052.59
2024-03-03T07:52:04.561Z,67072.00
2024-03-03T07:53:01.368Z,67072.00
2024-03-03T07:53:59.361Z,67075.47
2024-03-03T07:54:56.052Z,67090.34
2024-03-03T07:55:52.694Z,67056.63
2024-03-03T07:56:49.475Z,67052.59
2024-03-03T07:57:46.099Z,67042.78
2024-03-03T07:58:42.749Z,67057.59
2024-03-03T07:59:40.346Z,67060.94
2024-03-03T08:00:37.932Z,67089.09
2024-03-03T08:01:36.575Z,67082.31
2024-03-03T08:02:33.754Z,67075.34
2024-03-03T08:03:31.405Z,67095.88
2024-03-03T08:04:28.815Z,67088.13
2024-03-03T08:05:25.476Z,67076.47
2024-03-03T08:06:23.352Z,67096.03
2024-03-03T08:07:21.089Z,67104.06
2024-03-03T08:08:17.880Z,67102.53
2024-03-03T08:09:14.598Z,67099.22
2024-03-03T08:10:11.389Z,67088.69
2024-03-03T08:11:08.124Z,67083.28
2024-03-03T08:12:08.151Z,67077.72
2024-03-03T08:13:05.375Z,67083.66
2024-03-03T08:14:05.790Z,67075.34
2024-03-03T08:15:04.620Z,67118.09
2024-03-03T08:16:01.317Z,67119.88
2024-03-03T08:16:58.053Z,67119.88
2024-03-03T08:17:55.786Z,67134.72
2024-03-03T08:18:54.573Z,67102.53
2024-03-03T08:19:51.242Z,67064.78
2024-03-03T08:20:47.834Z,67056.50
2024-03-03T08:21:44.558Z,67042.63
2024-03-03T08:22:44.542Z,67038.75
2024-03-03T08:23:41.116Z,67063.16
2024-03-03T08:24:37.690Z,67052.03
2024-03-03T08:25:34.432Z,67091.03
2024-03-03T08:26:31.158Z,67088.69
2024-03-03T08:27:27.943Z,67097.00
2024-03-03T08:28:24.748Z,67113.66
2024-03-03T08:29:21.413Z,67094.78
2024-03-03T08:30:18.078Z,67108.78
2024-03-03T08:31:14.861Z,67121.56
2024-03-03T08:32:11.547Z,67120.84
2024-03-03T08:33:08.777Z,67129.03
2024-03-03T08:34:05.570Z,67126.94
2024-03-03T08:35:04.362Z,67124.75
2024-03-03T08:36:00.964Z,67151.38
2024-03-03T08:36:57.598Z,67151.53
2024-03-03T08:37:54.678Z,67152.47
2024-03-03T08:38:51.337Z,67149.72
2024-03-03T08:39:47.981Z,67154.16
2024-03-03T08:40:45.689Z,67165.97
2024-03-03T08:41:43.203Z,67159.28
2024-03-03T08:42:39.878Z,67180.25
2024-03-03T08:43:36.499Z,67183.16
2024-03-03T08:44:33.172Z,67184.69
2024-03-03T08:45:29.897Z,67211.34
2024-03-03T08:46:26.634Z,67189.53
2024-03-03T08:47:23.339Z,67116.28
2024-03-03T08:48:19.974Z,67089.78
2024-03-03T08:49:16.632Z,67046.50
2024-03-03T08:50:15.558Z,67041.50
2024-03-03T08:51:12.482Z,67038.19
2024-03-03T08:52:10.517Z,67105.88
2024-03-03T08:53:07.349Z,67112.38
2024-03-03T08:54:04.057Z,67144.72
2024-03-03T08:55:00.816Z,67162.50
2024-03-03T08:55:57.449Z,67156.38
2024-03-03T08:56:54.101Z,67171.50
2024-03-03T08:57:51.993Z,67202.59
2024-03-03T08:58:48.755Z,67218.13
2024-03-03T08:59:45.380Z,67204.25
2024-03-03T09:00:42.098Z,67186.34
2024-03-03T09:01:39.023Z,67150.28
2024-03-03T09:02:35.714Z,67189.81
2024-03-03T09:03:32.977Z,67212.59
2024-03-03T09:04:31.086Z,67199.53
2024-03-03T09:05:27.987Z,67181.34
2024-03-03T09:06:24.736Z,67154.72
2024-03-03T09:07:21.758Z,67150.28
2024-03-03T09:08:18.696Z,67162.06
2024-03-03T09:09:17.425Z,67190.38
2024-03-03T09:10:14.090Z,67216.34
2024-03-03T09:11:11.454Z,67202.31
2024-03-03T09:12:08.502Z,67159.84
2024-03-03T09:13:05.623Z,67108.09
2024-03-03T09:14:02.460Z,67147.09
2024-03-03T09:14:59.184Z,67174.13
2024-03-03T09:15:55.863Z,67230.78
2024-03-03T09:16:52.637Z,67241.59
2024-03-03T09:17:49.326Z,67225.75
2024-03-03T09:18:46.030Z,67237.28
2024-03-03T09:19:42.868Z,67245.75
2024-03-03T09:20:39.514Z,67257.84
2024-03-03T09:21:37.871Z,67239.25
2024-03-03T09:22:37.200Z,67256.75
2024-03-03T09:23:34.813Z,67312.44
2024-03-03T09:24:31.408Z,67315.22
2024-03-03T09:25:28.340Z,67284.78
2024-03-03T09:26:25.044Z,67292.44
2024-03-03T09:27:23.949Z,67277.44
2024-03-03T09:28:20.652Z,67289.09
2024-03-03T09:29:17.477Z,67302.03
2024-03-03T09:30:14.383Z,67267.00
2024-03-03T09:31:11.098Z,67277.56
2024-03-03T09:32:07.736Z,67278.53
2024-03-03T09:33:04.485Z,67290.88
2024-03-03T09:34:01.249Z,67290.88
2024-03-03T09:34:57.889Z,67308.13
2024-03-03T09:35:54.550Z,67284.66
2024-03-03T09:36:51.446Z,67260.34
2024-03-03T09:37:48.915Z,67316.31
2024-03-03T09:38:46.765Z,67328.81
2024-03-03T09:39:43.523Z,67308.13
2024-03-03T09:40:40.355Z,67289.09
2024-03-03T09:41:37.168Z,67314.25
2024-03-03T09:42:34.412Z,67254.09
2024-03-03T09:43:44.106Z,67270.47
2024-03-03T09:44:44.814Z,67325.78
2024-03-03T09:45:41.891Z,67315.34
2024-03-03T09:46:39.880Z,67354.84
2024-03-03T09:47:38.077Z,67355.53
2024-03-03T09:48:36.130Z,67375.25
2024-03-03T09:49:34.203Z,67350.38
2024-03-03T09:50:31.771Z,67380.25
2024-03-03T09:51:29.744Z,67388.19
2024-03-03T09:52:29.060Z,67314.38
2024-03-03T09:53:27.214Z,67351.50
2024-03-03T09:54:24.389Z,67341.47
2024-03-03T09:55:21.623Z,67327.44
2024-03-03T09:56:18.809Z,67352.75
2024-03-03T09:57:15.838Z,67325.78
2024-03-03T09:58:13.611Z,67321.19
2024-03-03T09:59:10.364Z,67326.31
2024-03-03T10:00:08.356Z,67328.41
2024-03-03T10:01:08.112Z,67355.38
2024-03-03T10:02:09.207Z,67387.75
2024-03-03T10:03:08.448Z,67313.69
2024-03-03T10:04:07.614Z,67376.38
2024-03-03T10:05:05.803Z,67344.25
2024-03-03T10:06:09.423Z,67366.09
2024-03-03T10:07:09.155Z,67396.53
2024-03-03T10:08:06.558Z,67384.84
2024-03-03T10:09:05.931Z,67385.81
2024-03-03T10:10:07.069Z,67306.31
2024-03-03T10:11:05.529Z,67286.03
2024-03-03T10:12:06.103Z,67267.44
2024-03-03T10:13:09.441Z,67302.44
2024-03-03T10:14:06.468Z,67330.34
2024-03-03T10:15:05.954Z,67343.00
2024-03-03T10:16:04.538Z,67362.75
2024-03-03T10:17:02.926Z,67376.94
2024-03-03T10:18:01.694Z,67403.63
2024-03-03T10:19:03.344Z,67429.91
2024-03-03T10:20:07.620Z,67412.09
2024-03-03T10:21:04.641Z,67427.25
2024-03-03T10:22:01.307Z,67425.31
2024-03-03T10:22:58.031Z,67397.09
2024-03-03T10:24:27.977Z,67404.72
2024-03-03T10:25:26.291Z,67416.00
2024-03-03T10:26:23.724Z,67418.78
2024-03-03T10:27:22.503Z,67433.22
2024-03-03T10:28:19.249Z,67424.91
2024-03-03T10:29:20.627Z,67468.16
2024-03-03T10:30:24.523Z,67482.22
2024-03-03T10:31:22.104Z,67518.38
2024-03-03T10:32:19.165Z,67502.94
2024-03-03T10:33:16.012Z,67499.47
2024-03-03T10:34:13.103Z,67466.63
2024-03-03T10:35:14.508Z,67429.50
2024-03-03T10:36:13.405Z,67481.66
2024-03-03T10:37:12.710Z,67478.31
2024-03-03T10:38:10.763Z,67490.13
2024-03-03T10:39:11.024Z,67515.03
2024-03-03T10:40:14.325Z,67490.00
2024-03-03T10:41:11.150Z,67479.56
2024-03-03T10:42:11.880Z,67490.69
2024-03-03T10:43:09.291Z,67482.22
2024-03-03T10:44:08.365Z,67492.63
2024-03-03T10:45:23.751Z,67516.84
2024-03-03T10:46:42.512Z,67501.13
2024-03-03T10:47:39.210Z,67514.47
2024-03-03T10:48:35.869Z,67444.38
2024-03-03T10:49:33.363Z,67484.00
2024-03-03T10:50:30.033Z,67548.84
2024-03-03T10:51:26.856Z,67503.34
2024-03-03T10:52:25.925Z,67538.41
2024-03-03T10:53:22.944Z,67512.94
2024-03-03T10:54:19.784Z,67487.78
2024-03-03T10:55:17.394Z,67505.56
2024-03-03T10:56:15.217Z,67551.78
2024-03-03T10:57:13.635Z,67595.38
2024-03-03T10:58:11.575Z,67603.19
2024-03-03T10:59:11.045Z,67604.28
2024-03-03T11:00:15.507Z,67587.44
2024-03-03T11:01:15.557Z,67555.72
2024-03-03T11:02:15.124Z,67561.28
2024-03-03T11:03:15.971Z,67559.03
2024-03-03T11:04:15.100Z,67502.66
2024-03-03T11:05:14.478Z,67548.44
2024-03-03T11:06:12.570Z,67551.22
2024-03-03T11:07:11.278Z,67552.50
2024-03-03T11:08:12.238Z,67603.59
2024-03-03T11:09:10.922Z,67592.47
2024-03-03T11:10:08.451Z,67577.00
2024-03-03T11:11:09.111Z,67605.13
2024-03-03T11:12:07.635Z,67627.69
2024-03-03T11:13:06.133Z,67577.00
2024-03-03T11:14:23.680Z,67627.53
2024-03-03T11:15:22.853Z,67618.09